Time;durP1;ratioP1;P1;durP2;ratioP2;P2;SDS_P1;SDS_P2;PMS_P1;PMS_P2;Temp;Humidity;BMP_temperature;BMP_pressure;BME280_temperature;BME280_humidity;BME280_pressure;Samples;Min_cycle;Max_cycle;Signal;HPM_P1;HPM_P2
2021/11/09 00:00:26;;;;;;;0.40;0.30;;;;;;;9.66;100.00;101935.34;5036225;28;20478;-77
2021/11/09 00:02:54;;;;;;;0.40;0.30;;;;;;;9.69;100.00;101941.03;5035176;28;20450;-77
2021/11/09 00:05:24;;;;;;;0.40;0.30;;;;;;;9.72;100.00;101939.69;5035317;28;20448;-77
2021/11/09 00:07:52;;;;;;;0.40;0.30;;;;;;;9.73;100.00;101947.53;5035230;28;20852;-77
2021/11/09 00:10:20;;;;;;;0.60;0.60;;;;;;;9.73;100.00;101935.91;5034631;28;20447;-77
2021/11/09 00:12:49;;;;;;;0.40;0.20;;;;;;;9.70;100.00;101937.25;5034530;28;20501;-76
2021/11/09 00:15:19;;;;;;;0.40;0.30;;;;;;;9.67;100.00;101948.59;5034634;28;20450;-77
2021/11/09 00:17:47;;;;;;;0.40;0.30;;;;;;;9.68;100.00;101952.13;5034553;28;20478;-77
2021/11/09 00:20:19;;;;;;;0.40;0.30;;;;;;;9.68;100.00;101949.41;5034179;28;20970;-77
2021/11/09 00:22:47;;;;;;;0.40;0.30;;;;;;;9.67;100.00;101956.72;5035034;28;20435;-77
2021/11/09 00:25:15;;;;;;;0.40;0.30;;;;;;;9.65;100.00;101958.88;5034929;28;20447;-77
2021/11/09 00:27:42;;;;;;;0.40;0.30;;;;;;;9.66;100.00;101955.09;5034333;28;20517;-77
2021/11/09 00:30:10;;;;;;;1.43;0.93;;;;;;;9.60;100.00;101953.41;5034790;28;20510;-77
2021/11/09 00:32:38;;;;;;;0.40;0.20;;;;;;;9.60;100.00;101954.22;5034836;28;20439;-77
2021/11/09 00:35:05;;;;;;;0.40;0.30;;;;;;;9.60;100.00;101956.13;5034704;28;20455;-77
2021/11/09 00:37:33;;;;;;;0.40;0.27;;;;;;;9.60;100.00;101958.81;5035159;28;20980;-77
2021/11/09 00:40:00;;;;;;;0.40;0.30;;;;;;;9.58;100.00;101961.00;5034799;28;20443;-77
2021/11/09 00:42:27;;;;;;;0.40;0.30;;;;;;;9.59;100.00;101959.91;5034657;28;20486;-77
2021/11/09 00:44:53;;;;;;;0.40;0.30;;;;;;;9.61;100.00;101965.88;5034770;28;20443;-77
2021/11/09 00:47:20;;;;;;;0.40;0.30;;;;;;;9.62;100.00;101977.50;5034728;28;20482;-77
2021/11/09 00:49:46;;;;;;;0.43;0.40;;;;;;;9.62;100.00;101970.22;5034886;28;20462;-77
2021/11/09 00:52:14;;;;;;;0.40;0.30;;;;;;;9.67;100.00;101969.44;5034935;28;20435;-77
2021/11/09 00:54:41;;;;;;;0.40;0.30;;;;;;;9.68;100.00;101977.28;5037831;28;20458;-77
2021/11/09 00:57:08;;;;;;;0.40;0.30;;;;;;;9.69;100.00;101973.50;5038952;28;20466;-77
2021/11/09 00:59:34;;;;;;;0.40;0.30;;;;;;;9.70;100.00;101975.16;5039422;28;20443;-76
2021/11/09 01:02:02;;;;;;;0.40;0.30;;;;;;;9.71;100.00;101967.84;5039814;28;20494;-77
2021/11/09 01:04:29;;;;;;;0.40;0.30;;;;;;;9.68;100.00;101985.41;5039293;28;20948;-77
2021/11/09 01:06:56;;;;;;;0.40;0.30;;;;;;;9.69;100.00;101972.69;5039540;28;20467;-76
2021/11/09 01:09:23;;;;;;;0.40;0.30;;;;;;;9.70;100.00;101969.72;5039361;28;20439;-76
2021/11/09 01:11:51;;;;;;;0.40;0.30;;;;;;;9.70;100.00;101975.16;5039456;28;20600;-76
2021/11/09 01:14:19;;;;;;;0.40;0.30;;;;;;;9.68;100.00;101977.28;5039340;28;20435;-76
2021/11/09 01:16:46;;;;;;;0.40;0.30;;;;;;;9.67;100.00;101978.34;5037838;28;20471;-77
2021/11/09 01:19:13;;;;;;;0.40;0.30;;;;;;;9.68;100.00;101982.69;5037402;28;20451;-77
2021/11/09 01:21:41;;;;;;;0.40;0.30;;;;;;;9.65;100.00;101971.56;5037106;28;20487;-77
2021/11/09 01:24:08;;;;;;;0.40;0.30;;;;;;;9.63;100.00;101982.66;5036913;28;20447;-77
2021/11/09 01:26:34;;;;;;;0.40;0.30;;;;;;;9.58;100.00;101982.63;5036356;28;20478;-77
2021/11/09 01:29:05;;;;;;;0.40;0.30;;;;;;;9.54;100.00;101979.63;5036416;28;20436;-77
2021/11/09 01:31:33;;;;;;;0.40;0.30;;;;;;;9.53;100.00;101972.59;5036493;28;21007;-77
2021/11/09 01:34:00;;;;;;;0.40;0.30;;;;;;;9.54;100.00;101965.28;5036400;28;20447;-77
2021/11/09 01:36:27;;;;;;;0.40;0.30;;;;;;;9.53;100.00;101963.66;5036386;28;20473;-77
2021/11/09 01:38:54;;;;;;;0.40;0.30;;;;;;;9.53;100.00;101959.06;5037285;28;20446;-76
2021/11/09 01:41:23;;;;;;;0.40;0.30;;;;;;;9.51;100.00;101963.91;5036205;28;20490;-76
2021/11/09 01:43:50;;;;;;;0.40;0.30;;;;;;;9.48;100.00;101961.72;5036768;28;20447;-77
2021/11/09 01:46:19;;;;;;;0.40;0.30;;;;;;;9.56;100.00;101965.81;5035835;28;20447;-77
2021/11/09 01:48:46;;;;;;;0.40;0.30;;;;;;;9.57;100.00;101965.59;5036340;28;20586;-77
2021/11/09 01:51:15;;;;;;;0.40;0.30;;;;;;;9.59;100.00;101962.59;5035939;28;20443;-77
2021/11/09 01:53:44;;;;;;;0.40;0.30;;;;;;;9.59;100.00;101973.44;5036189;28;20498;-77
2021/11/09 01:56:14;;;;;;;0.40;0.30;;;;;;;9.51;100.00;101965.78;5036157;28;20444;-77
2021/11/09 01:58:41;;;;;;;0.40;0.30;;;;;;;9.53;100.00;101972.59;5036697;28;20473;-77
2021/11/09 02:01:11;;;;;;;0.40;0.30;;;;;;;9.59;100.00;101976.13;5036324;28;20971;-77
2021/11/09 02:03:42;;;;;;;0.40;0.30;;;;;;;9.63;100.00;101979.94;5037092;28;20443;-77
2021/11/09 02:06:09;;;;;;;0.40;0.30;;;;;;;9.64;100.00;101970.75;5036130;28;20450;-77
2021/11/09 02:08:36;;;;;;;0.40;0.30;;;;;;;9.66;100.00;101970.50;5035921;28;20866;-77
2021/11/09 02:11:02;;;;;;;0.40;0.30;;;;;;;9.64;100.00;101970.75;5036527;28;20932;-77
2021/11/09 02:13:29;;;;;;;0.40;0.30;;;;;;;9.67;100.00;101981.06;5036220;28;20981;-77
2021/11/09 02:15:57;;;;;;;0.50;0.50;;;;;;;9.65;100.00;101977.81;5036396;28;20451;-77
2021/11/09 02:18:25;;;;;;;0.40;0.30;;;;;;;9.61;100.00;101982.13;5035842;28;21055;-77
2021/11/09 02:20:57;;;;;;;0.40;0.30;;;;;;;9.55;100.00;101986.66;5036224;28;20436;-77
2021/11/09 02:23:24;;;;;;;0.40;0.30;;;;;;;9.55;100.00;101977.72;5036099;28;20485;-77
2021/11/09 02:25:51;;;;;;;0.40;0.30;;;;;;;9.57;100.00;101989.13;5035126;28;20594;-77
2021/11/09 02:28:18;;;;;;;0.40;0.30;;;;;;;9.56;100.00;101988.31;5035523;28;20474;-77
2021/11/09 02:30:45;;;;;;;0.40;0.30;;;;;;;9.54;100.00;101986.91;5035576;28;20447;-77
2021/11/09 02:33:12;;;;;;;0.40;0.30;;;;;;;9.55;100.00;101992.06;5035134;28;20874;-77
2021/11/09 02:35:39;;;;;;;0.40;0.20;;;;;;;9.53;100.00;101993.41;5035051;28;20466;-77
2021/11/09 02:38:07;;;;;;;0.40;0.30;;;;;;;9.53;100.00;102004.22;5035518;28;20471;-77
2021/11/09 02:40:34;;;;;;;0.40;0.30;;;;;;;9.49;100.00;102008.53;5034777;28;20945;-77
2021/11/09 02:43:06;;;;;;;0.40;0.30;;;;;;;9.46;100.00;102006.34;5034577;28;20490;-77
2021/11/09 02:45:39;;;;;;;0.40;0.30;;;;;;;9.46;100.00;102004.44;5035464;28;20549;-77
2021/11/09 02:48:11;;;;;;;0.40;0.30;;;;;;;9.45;100.00;102008.22;5034981;28;20895;-77
2021/11/09 02:50:41;;;;;;;0.40;0.30;;;;;;;9.44;100.00;102011.19;5034403;28;20514;-77
2021/11/09 02:53:12;;;;;;;0.40;0.30;;;;;;;9.44;100.00;102013.91;5035547;28;20443;-77
2021/11/09 02:55:41;;;;;;;0.40;0.30;;;;;;;9.42;100.00;102010.63;5034944;28;20431;-77
2021/11/09 02:58:18;;;;;;;0.40;0.30;;;;;;;9.42;100.00;102014.13;5034415;28;20499;-77
2021/11/09 03:00:57;;;;;;;0.40;0.30;;;;;;;9.42;100.00;102021.44;5035466;28;20537;-77
2021/11/09 03:03:30;;;;;;;0.40;0.30;;;;;;;9.41;100.00;102022.50;5035273;28;20467;-77
2021/11/09 03:06:06;;;;;;;0.40;0.30;;;;;;;9.41;100.00;102025.22;5035381;28;20423;-77
2021/11/09 03:08:36;;;;;;;0.40;0.30;;;;;;;9.38;100.00;102028.44;5035966;28;20496;-77
2021/11/09 03:11:04;;;;;;;0.40;0.30;;;;;;;9.41;100.00;102028.75;5035015;28;20526;-77
2021/11/09 03:13:31;;;;;;;0.40;0.30;;;;;;;9.38;100.00;102028.44;5034705;28;21035;-77
2021/11/09 03:16:02;;;;;;;0.40;0.30;;;;;;;9.38;100.00;102028.44;5034836;28;20530;-77
2021/11/09 03:18:31;;;;;;;0.40;0.30;;;;;;;9.37;100.00;102030.31;5034081;28;20475;-77
2021/11/09 03:23:08;;;;;;;0.40;0.30;;;;;;;9.40;100.00;102035.22;5034807;28;20455;-77
2021/11/09 03:40:28;;;;;;;0.40;0.30;;;;;;;9.39;100.00;102051.72;5033607;28;20931;-77
2021/11/09 03:45:40;;;;;;;0.40;0.30;;;;;;;9.37;100.00;102059.25;5033751;28;20410;-77
2021/11/09 03:48:10;;;;;;;0.40;0.30;;;;;;;9.37;100.00;102056.56;5034136;28;20462;-77
2021/11/09 03:50:39;;;;;;;0.40;0.30;;;;;;;9.40;100.00;102056.84;5034994;28;20451;-77
2021/11/09 03:53:10;;;;;;;0.40;0.30;;;;;;;9.40;100.00;102056.06;5034837;28;20486;-77
2021/11/09 03:55:45;;;;;;;0.40;0.30;;;;;;;9.39;100.00;102057.13;5034936;28;20955;-77
2021/11/09 03:58:18;;;;;;;0.40;0.30;;;;;;;9.34;100.00;102064.13;5035057;28;20471;-76
2021/11/09 04:00:49;;;;;;;0.40;0.30;;;;;;;9.34;100.00;102064.13;5035122;28;20442;-77
2021/11/09 04:03:25;;;;;;;0.40;0.30;;;;;;;9.33;100.00;102057.06;5035350;28;20471;-77
2021/11/09 04:05:54;;;;;;;0.40;0.30;;;;;;;9.34;100.00;102061.41;5035441;28;20433;-76
2021/11/09 04:08:34;;;;;;;0.40;0.30;;;;;;;9.34;100.00;102061.41;5035222;28;20475;-77
2021/11/09 04:11:08;;;;;;;0.40;0.30;;;;;;;9.35;100.00;102057.63;5035113;28;20931;-77
2021/11/09 04:13:40;;;;;;;0.40;0.30;;;;;;;9.37;100.00;102062.78;5035185;28;20427;-77
2021/11/09 04:16:19;;;;;;;0.40;0.30;;;;;;;9.37;100.00;102065.47;5035545;28;20514;-77
2021/11/09 04:18:54;;;;;;;0.40;0.30;;;;;;;9.38;100.00;102069.00;5034648;28;20435;-77
2021/11/09 04:21:37;;;;;;;0.40;0.30;;;;;;;9.39;100.00;102067.94;5035071;28;20488;-77
2021/11/09 04:52:03;;;;;;;0.40;0.30;;;;;;;9.37;100.00;102097.13;5030973;28;20794;-77
2021/11/09 05:03:00;;;;;;;0.40;0.30;;;;;;;9.39;100.00;102103.91;5034609;28;20513;-77
2021/11/09 05:10:54;;;;;;;0.40;0.30;;;;;;;9.42;100.00;102116.91;5031051;28;20533;-77
2021/11/09 05:13:21;;;;;;;0.40;0.30;;;;;;;9.40;100.00;102127.19;5034070;28;20490;-77
2021/11/09 05:15:49;;;;;;;0.40;0.30;;;;;;;9.38;100.00;102128.50;5033889;28;20462;-77
2021/11/09 05:18:16;;;;;;;0.40;0.30;;;;;;;9.40;100.00;102129.88;5033436;28;20478;-77
2021/11/09 05:20:42;;;;;;;0.40;0.30;;;;;;;9.45;100.00;102139.94;5033702;28;20443;-77
2021/11/09 05:23:09;;;;;;;0.40;0.30;;;;;;;9.45;100.00;102146.16;5033893;28;20489;-77
2021/11/09 05:25:35;;;;;;;0.40;0.30;;;;;;;9.46;100.00;102146.97;5033898;28;20454;-77
2021/11/09 05:28:02;;;;;;;0.40;0.30;;;;;;;9.43;100.00;102144.75;5033581;28;20471;-77
2021/11/09 05:30:28;;;;;;;0.40;0.30;;;;;;;9.43;100.00;102153.72;5033638;28;20444;-77
2021/11/09 05:32:59;;;;;;;0.40;0.30;;;;;;;9.41;100.00;102146.91;5034038;28;20443;-77
2021/11/09 05:35:26;;;;;;;0.40;0.30;;;;;;;9.42;100.00;102156.66;5034284;28;20473;-77
2021/11/09 05:37:53;;;;;;;0.40;0.20;;;;;;;9.43;100.00;102158.28;5034171;28;20467;-77
2021/11/09 05:40:27;;;;;;;0.40;0.30;;;;;;;9.42;100.00;102162.06;5034983;28;20943;-77
2021/11/09 05:42:53;;;;;;;0.40;0.30;;;;;;;9.41;100.00;102165.84;5038447;28;20554;-77
2021/11/09 05:45:20;;;;;;;0.40;0.30;;;;;;;9.40;100.00;102164.22;5037391;28;20457;-77
2021/11/09 05:47:47;;;;;;;0.40;0.20;;;;;;;9.41;100.00;102168.56;5036062;28;20475;-77
2021/11/09 05:50:14;;;;;;;0.40;0.40;;;;;;;9.39;100.00;102173.41;5035993;28;20967;-77
2021/11/09 05:52:41;;;;;;;0.40;0.30;;;;;;;9.40;100.00;102181.25;5036247;28;20439;-77
2021/11/09 05:55:08;;;;;;;0.40;0.30;;;;;;;9.41;100.00;102177.47;5036545;28;20443;-77
2021/11/09 05:57:35;;;;;;;0.40;0.27;;;;;;;9.39;100.00;102176.94;5035958;28;20988;-77
2021/11/09 06:00:03;;;;;;;0.40;0.23;;;;;;;9.39;100.00;102176.13;5035872;28;20936;-77
2021/11/09 06:02:29;;;;;;;0.40;0.30;;;;;;;9.39;100.00;102179.63;5036177;28;20483;-77
2021/11/09 06:04:56;;;;;;;0.40;0.30;;;;;;;9.38;100.00;102177.16;5036095;28;20454;-77
2021/11/09 06:07:24;;;;;;;0.40;0.30;;;;;;;9.35;100.00;102184.72;5035888;28;20471;-77
2021/11/09 06:09:50;;;;;;;0.50;0.40;;;;;;;9.35;100.00;102189.31;5035594;28;20455;-76
2021/11/09 06:12:17;;;;;;;0.40;0.30;;;;;;;9.28;100.00;102194.91;5035746;28;20443;-77
2021/11/09 06:14:43;;;;;;;3.13;2.60;;;;;;;9.32;100.00;102190.63;5035756;28;20462;-76
2021/11/09 06:17:10;;;;;;;0.40;0.30;;;;;;;9.31;100.00;102202.53;5035505;28;20474;-77
2021/11/09 06:19:36;;;;;;;0.40;0.30;;;;;;;9.33;100.00;102203.06;5035789;28;20448;-77
2021/11/09 06:22:04;;;;;;;0.40;0.30;;;;;;;9.33;100.00;102208.47;5035803;28;20447;-77
2021/11/09 06:24:32;;;;;;;0.40;0.30;;;;;;;9.30;100.00;102209.00;5035910;28;20447;-77
2021/11/09 06:26:58;;;;;;;0.63;0.60;;;;;;;9.26;100.00;102216.00;5035765;28;20619;-77
2021/11/09 06:29:25;;;;;;;0.40;0.30;;;;;;;9.28;100.00;102219.25;5036024;28;20457;-77
2021/11/09 06:31:52;;;;;;;0.40;0.30;;;;;;;9.25;100.00;102222.47;5035487;28;20451;-76
2021/11/09 06:34:19;;;;;;;0.40;0.30;;;;;;;9.23;100.00;102227.28;5035135;28;20471;-76
2021/11/09 06:36:46;;;;;;;0.40;0.30;;;;;;;9.26;100.00;102237.63;5035472;28;20463;-76
2021/11/09 06:39:12;;;;;;;0.40;0.30;;;;;;;9.27;100.00;102239.25;5035166;28;20474;-76
2021/11/09 06:41:41;;;;;;;0.40;0.30;;;;;;;9.30;100.00;102246.88;5035189;28;20474;-76
2021/11/09 06:44:07;;;;;;;0.40;0.30;;;;;;;9.28;100.00;102246.28;5035111;28;20486;-77
2021/11/09 06:46:34;;;;;;;0.50;0.40;;;;;;;9.27;100.00;102246.53;5035212;28;20475;-77
2021/11/09 06:49:00;;;;;;;0.40;0.30;;;;;;;9.32;100.00;102243.91;5034365;28;20455;-76
2021/11/09 06:51:27;;;;;;;0.40;0.30;;;;;;;9.32;100.00;102252.81;5034629;28;20443;-77
2021/11/09 06:53:53;;;;;;;0.40;0.30;;;;;;;9.33;100.00;102257.16;5035018;28;20787;-76
2021/11/09 06:56:20;;;;;;;0.40;0.30;;;;;;;9.37;100.00;102259.38;5035155;28;20455;-76
2021/11/09 06:58:48;;;;;;;0.40;0.30;;;;;;;9.38;100.00;102269.09;5035801;28;20788;-78
2021/11/09 07:01:15;;;;;;;0.40;0.30;;;;;;;9.39;100.00;102273.47;5036118;28;20866;-78
2021/11/09 07:03:41;;;;;;;0.40;0.30;;;;;;;9.40;100.00;102286.72;5034765;28;21011;-78
2021/11/09 07:06:08;;;;;;;0.40;0.30;;;;;;;9.40;100.00;102291.34;5035125;28;20439;-78
2021/11/09 07:08:34;;;;;;;0.40;0.30;;;;;;;9.39;100.00;102300.53;5035026;28;20467;-77
2021/11/09 07:11:03;;;;;;;0.40;0.33;;;;;;;9.40;100.00;102304.84;5034280;28;20941;-77
2021/11/09 07:13:29;;;;;;;0.40;0.27;;;;;;;9.40;100.00;102304.84;5035149;28;20498;-77
2021/11/09 07:15:57;;;;;;;0.40;0.30;;;;;;;9.38;100.00;102307.78;5034425;28;20932;-77
2021/11/09 07:18:24;;;;;;;0.40;0.30;;;;;;;9.42;100.00;102314.34;5034637;28;20474;-77
2021/11/09 07:20:50;;;;;;;0.40;0.30;;;;;;;9.47;100.00;102314.41;5034784;28;20450;-77
2021/11/09 07:23:17;;;;;;;0.40;0.30;;;;;;;9.50;100.00;102321.22;5034333;28;20521;-77
2021/11/09 07:25:43;;;;;;;0.40;0.40;;;;;;;9.53;100.00;102324.22;5034648;28;20442;-77
2021/11/09 07:28:10;;;;;;;0.40;0.30;;;;;;;9.51;100.00;102323.66;5034540;28;20478;-77
2021/11/09 07:30:43;;;;;;;0.40;0.30;;;;;;;9.57;100.00;102332.66;5034276;28;20454;-77
2021/11/09 07:33:12;;;;;;;0.40;0.30;;;;;;;9.58;100.00;102335.13;5034281;28;20434;-77
2021/11/09 07:35:39;;;;;;;0.40;0.30;;;;;;;9.56;100.00;102333.72;5033786;28;20809;-77
2021/11/09 07:38:05;;;;;;;0.40;0.30;;;;;;;9.49;100.00;102327.69;5033753;28;21063;-77
2021/11/09 07:40:33;;;;;;;0.40;0.30;;;;;;;9.45;100.00;102330.06;5034135;28;20454;-77
2021/11/09 07:42:59;;;;;;;0.40;0.30;;;;;;;9.45;100.00;102334.66;5033587;28;20956;-77
2021/11/09 07:45:27;;;;;;;0.40;0.30;;;;;;;9.48;100.00;102334.19;5033636;28;21042;-77
2021/11/09 07:47:56;;;;;;;0.40;0.30;;;;;;;9.50;100.00;102340.13;5033835;28;20471;-77
2021/11/09 07:50:25;;;;;;;0.40;0.30;;;;;;;9.53;100.00;102336.94;5033658;28;20810;-77
2021/11/09 07:52:56;;;;;;;0.40;0.30;;;;;;;9.58;100.00;102334.31;5033909;28;20443;-77
2021/11/09 07:55:23;;;;;;;1.27;1.17;;;;;;;9.63;100.00;102337.06;5033908;28;20475;-77
2021/11/09 07:57:53;;;;;;;0.40;0.20;;;;;;;9.66;100.00;102341.97;5033979;28;20466;-77
2021/11/09 08:00:24;;;;;;;0.40;0.30;;;;;;;9.72;100.00;102357.19;5033465;28;20443;-77
2021/11/09 08:03:02;;;;;;;0.40;0.30;;;;;;;9.71;100.00;102346.63;5033224;28;20481;-77
2021/11/09 08:05:35;;;;;;;0.40;0.30;;;;;;;9.71;100.00;102358.28;5033670;28;20473;-77
2021/11/09 08:08:06;;;;;;;0.40;0.30;;;;;;;9.71;100.00;102365.56;5033745;28;20471;-77
2021/11/09 08:10:33;;;;;;;0.40;0.30;;;;;;;9.70;100.00;102364.75;5033750;28;20446;-77
2021/11/09 08:13:00;;;;;;;0.40;0.30;;;;;;;9.67;100.00;102372.56;5033751;28;20439;-77
2021/11/09 08:15:26;;;;;;;0.40;0.30;;;;;;;9.67;100.00;102370.66;5033593;28;20471;-77
2021/11/09 08:17:53;;;;;;;0.40;0.30;;;;;;;9.68;100.00;102363.38;5033213;28;20471;-77
2021/11/09 08:20:20;;;;;;;0.40;0.30;;;;;;;9.73;100.00;102368.84;5033498;28;20443;-77
2021/11/09 08:22:48;;;;;;;2.10;2.00;;;;;;;9.74;100.00;102368.59;5033459;28;20500;-77
2021/11/09 08:25:15;;;;;;;0.40;0.30;;;;;;;9.75;100.00;102362.13;5033187;28;20826;-77
2021/11/09 08:27:41;;;;;;;0.40;0.40;;;;;;;9.76;100.00;102369.16;5033072;28;20774;-77
2021/11/09 08:30:08;;;;;;;1.23;1.17;;;;;;;9.77;100.00;102368.09;5033345;28;20875;-77
2021/11/09 08:32:36;;;;;;;0.40;0.30;;;;;;;9.79;100.00;102374.09;5033648;28;20438;-77
2021/11/09 08:35:03;;;;;;;0.40;0.30;;;;;;;9.79;100.00;102373.28;5032369;28;20999;-76
2021/11/09 08:37:31;;;;;;;0.40;0.30;;;;;;;9.84;100.00;102376.03;5033354;28;21019;-77
2021/11/09 08:40:01;;;;;;;2.20;2.10;;;;;;;9.86;100.00;102380.09;5033363;28;20501;-77
2021/11/09 08:42:30;;;;;;;0.40;0.30;;;;;;;9.91;100.00;102386.66;5033008;28;20530;-77
2021/11/09 08:45:04;;;;;;;0.40;0.30;;;;;;;9.88;100.00;102381.75;5033131;28;20487;-77
2021/11/09 08:47:34;;;;;;;0.40;0.30;;;;;;;9.94;100.00;102380.75;5033058;28;20509;-77
2021/11/09 08:50:01;;;;;;;0.40;0.30;;;;;;;10.02;100.00;102378.41;5033223;28;20459;-77
2021/11/09 08:52:30;;;;;;;0.40;0.30;;;;;;;10.10;100.00;102383.38;5033193;28;20515;-77
2021/11/09 08:55:12;;;;;;;0.40;0.30;;;;;;;10.05;100.00;102383.34;5033174;28;20471;-77
2021/11/09 08:58:01;;;;;;;0.40;0.23;;;;;;;10.12;100.00;102383.13;5033045;28;20502;-77
2021/11/09 09:06:07;;;;;;;0.40;0.20;;;;;;;10.21;100.00;102389.72;4991715;28;20448;-78
2021/11/09 09:08:33;;;;;;;0.40;0.30;;;;;;;10.27;100.00;102386.06;5024002;28;20470;-77
2021/11/09 09:11:02;;;;;;;0.40;0.30;;;;;;;10.31;100.00;102392.59;5033535;28;20459;-77
2021/11/09 09:13:29;;;;;;;0.40;0.30;;;;;;;10.35;100.00;102392.88;5021466;28;20831;-79
2021/11/09 09:15:55;;;;;;;0.40;0.20;;;;;;;10.32;100.00;102399.63;5017568;28;20444;-77
2021/11/09 09:18:22;;;;;;;0.40;0.30;;;;;;;10.29;100.00;102388.50;5017117;28;20482;-77
2021/11/09 09:20:52;;;;;;;1.17;1.07;;;;;;;10.33;100.00;102389.63;5017003;28;21037;-77
2021/11/09 09:23:21;;;;;;;0.40;0.30;;;;;;;10.37;100.00;102392.66;5017189;28;20488;-76
2021/11/09 09:25:51;;;;;;;0.40;0.30;;;;;;;10.40;100.00;102390.22;5017143;28;20524;-76
2021/11/09 09:31:22;;;;;;;0.40;0.30;;;;;;;10.53;100.00;102380.88;5014435;28;20445;-77
2021/11/09 09:53:10;;;;;;;0.40;0.20;;;;;;;10.97;100.00;102400.50;5017257;28;20432;-77
2021/11/09 09:55:40;;;;;;;0.40;0.20;;;;;;;10.96;100.00;102395.34;5016734;28;20428;-77
2021/11/09 09:58:08;;;;;;;0.40;0.30;;;;;;;11.07;100.00;102405.22;5016470;28;20471;-77
2021/11/09 10:00:37;;;;;;;0.40;0.30;;;;;;;11.11;100.00;102396.31;5016575;28;20530;-77
2021/11/09 10:03:05;;;;;;;0.40;0.30;;;;;;;11.11;99.37;102396.31;5016344;28;20487;-77
2021/11/09 10:05:34;;;;;;;0.40;0.30;;;;;;;11.17;99.83;102408.00;5017388;28;20440;-77
2021/11/09 10:08:10;;;;;;;0.40;0.30;;;;;;;11.23;99.06;102404.25;5016550;28;20563;-78
2021/11/09 10:10:37;;;;;;;1.53;1.33;;;;;;;11.16;98.41;102405.56;5016184;28;20983;-77
2021/11/09 10:13:08;;;;;;;0.40;0.20;;;;;;;11.14;98.75;102411.22;5016566;28;20451;-78
2021/11/09 10:15:37;;;;;;;0.40;0.30;;;;;;;11.17;98.92;102415.31;5016871;28;20472;-77
2021/11/09 10:18:05;;;;;;;0.40;0.40;;;;;;;11.21;99.08;102414.53;5016292;28;20471;-77
2021/11/09 10:20:34;;;;;;;0.40;0.30;;;;;;;11.18;98.03;102409.63;5016154;28;20451;-77
2021/11/09 10:23:04;;;;;;;0.40;0.30;;;;;;;11.23;99.22;102406.94;5016112;28;20450;-77
2021/11/09 10:25:31;;;;;;;0.40;0.20;;;;;;;11.30;99.93;102415.69;5016679;28;20480;-78
2021/11/09 10:28:01;;;;;;;0.40;0.30;;;;;;;11.45;99.69;102411.44;5016553;28;20453;-78
2021/11/09 10:30:31;;;;;;;0.40;0.20;;;;;;;11.69;99.07;102422.72;5016549;28;20448;-78
2021/11/09 10:32:59;;;;;;;0.40;0.30;;;;;;;11.79;97.33;102420.06;5016607;28;20543;-77
2021/11/09 10:35:26;;;;;;;0.40;0.23;;;;;;;11.88;96.47;102423.13;5015671;28;20456;-77
2021/11/09 10:37:55;;;;;;;0.40;0.30;;;;;;;11.94;95.22;102435.63;5015678;28;20470;-76
2021/11/09 10:40:24;;;;;;;0.40;0.30;;;;;;;11.91;94.61;102436.16;5015322;28;20978;-76
2021/11/09 10:42:54;;;;;;;0.40;0.30;;;;;;;11.96;93.15;102428.06;5015692;28;20954;-76
2021/11/09 10:45:23;;;;;;;0.40;0.30;;;;;;;12.04;93.50;102430.25;5015664;28;20573;-77
2021/11/09 10:47:52;;;;;;;0.50;0.30;;;;;;;12.09;94.18;102439.25;5015810;28;20453;-77
2021/11/09 10:50:22;;;;;;;0.40;0.20;;;;;;;12.20;93.25;102436.56;5015183;28;20794;-76
2021/11/09 10:53:00;;;;;;;0.40;0.27;;;;;;;12.27;92.93;102445.28;5015417;28;20831;-77
2021/11/09 10:55:33;;;;;;;0.40;0.20;;;;;;;12.23;90.78;102450.44;5015551;28;20435;-77
2021/11/09 10:58:14;;;;;;;0.40;0.30;;;;;;;12.09;90.35;102443.88;5014944;28;20460;-77
2021/11/09 11:03:50;;;;;;;0.40;0.37;;;;;;;11.96;92.40;102439.72;5013665;28;21052;-78
2021/11/09 11:06:20;;;;;;;0.40;0.20;;;;;;;11.94;90.96;102431.00;5015324;28;20933;-78
2021/11/09 11:08:48;;;;;;;0.40;0.30;;;;;;;11.93;91.44;102428.56;5016578;28;20510;-77
2021/11/09 11:11:17;;;;;;;0.40;0.30;;;;;;;11.97;91.40;102435.13;5018602;28;20463;-76
2021/11/09 11:13:43;;;;;;;0.40;0.30;;;;;;;12.04;91.32;102430.25;5019403;28;20445;-77
2021/11/09 11:16:11;;;;;;;0.40;0.20;;;;;;;12.10;91.45;102423.75;5017067;28;20459;-77
2021/11/09 11:18:40;;;;;;;0.40;0.30;;;;;;;12.22;91.13;102421.63;5015182;28;20456;-79
2021/11/09 11:21:09;;;;;;;0.40;0.30;;;;;;;12.27;90.12;102418.94;5014836;28;20996;-77
2021/11/09 11:23:39;;;;;;;0.40;0.30;;;;;;;12.35;88.78;102415.69;5014717;28;20456;-77
2021/11/09 11:26:06;;;;;;;0.40;0.30;;;;;;;12.34;89.92;102410.50;5014847;28;20451;-77
2021/11/09 11:28:34;;;;;;;1.20;1.17;;;;;;;12.43;87.99;102411.63;5014956;28;20460;-77
2021/11/09 11:31:03;;;;;;;0.40;0.30;;;;;;;12.43;85.76;102418.97;5020556;28;20468;-78
2021/11/09 11:33:29;;;;;;;0.40;0.30;;;;;;;12.36;83.23;102411.91;5014875;28;20452;-77
2021/11/09 11:35:56;;;;;;;0.40;0.20;;;;;;;12.32;83.60;102409.97;5014440;28;20471;-76
2021/11/09 11:38:24;;;;;;;0.40;0.20;;;;;;;12.31;84.56;102409.16;5013650;28;20464;-77
2021/11/09 11:40:56;;;;;;;0.40;0.30;;;;;;;12.36;85.71;102406.47;5014683;28;20461;-77
2021/11/09 11:43:52;;;;;;;1.37;1.27;;;;;;;12.40;84.19;102417.63;5014564;28;20524;-77
2021/11/09 11:46:51;;;;;;;0.40;0.30;;;;;;;12.38;80.31;102408.91;5043684;22;20557;-68
2021/11/09 11:49:28;;;;;;;0.40;0.20;;;;;;;12.37;80.58;102408.09;5033765;28;20442;-69
2021/11/09 11:52:14;;;;;;;0.40;0.30;;;;;;;12.34;83.54;102397.75;5033397;28;20434;-69
2021/11/09 11:54:47;;;;;;;0.40;0.27;;;;;;;12.37;80.41;102401.84;5033544;28;20467;-69
2021/11/09 11:57:41;;;;;;;0.40;0.30;;;;;;;12.33;81.33;102404.25;5033598;28;20434;-69
2021/11/09 12:00:31;;;;;;;0.40;0.30;;;;;;;12.34;82.04;102403.19;5033543;28;20442;-69
2021/11/09 12:03:00;;;;;;;0.40;0.30;;;;;;;12.37;80.39;102396.41;5033442;28;20439;-69
2021/11/09 12:05:39;;;;;;;0.40;0.30;;;;;;;12.37;81.07;102401.84;5033269;28;20494;-69
2021/11/09 12:08:08;;;;;;;0.40;0.30;;;;;;;12.29;81.08;102405.06;5033676;28;20427;-69
2021/11/09 12:10:41;;;;;;;0.40;0.20;;;;;;;12.53;83.22;102403.50;5033344;28;20447;-69
2021/11/09 12:13:10;;;;;;;0.40;0.30;;;;;;;12.75;82.58;102400.56;5032470;28;20490;-69
2021/11/09 12:15:48;;;;;;;0.40;0.30;;;;;;;13.03;81.77;102401.09;5033042;28;20471;-66
2021/11/09 12:18:42;;;;;;;0.40;0.30;;;;;;;13.42;76.99;102389.66;5033530;28;20439;-67
2021/11/09 12:21:38;;;;;;;0.40;0.20;;;;;;;13.98;74.45;102392.16;5033216;28;20514;-66
2021/11/09 12:24:15;;;;;;;0.40;0.30;;;;;;;14.85;74.81;102400.66;5033106;28;20486;-66
2021/11/09 12:26:44;;;;;;;0.40;0.30;;;;;;;15.46;67.22;102397.38;5033211;28;20427;-66
2021/11/09 12:29:40;;;;;;;0.40;0.30;;;;;;;16.68;65.67;102397.72;5033433;28;20443;-66
2021/11/09 12:32:40;;;;;;;0.40;0.30;;;;;;;17.35;56.68;102401.00;5033280;28;20451;-67
2021/11/09 12:35:21;;;;;;;0.40;0.30;;;;;;;17.47;55.80;102396.94;5033103;28;20843;-67
2021/11/09 12:38:09;;;;;;;0.40;0.30;;;;;;;17.85;57.42;102406.63;5033125;28;20848;-67
2021/11/09 12:40:37;;;;;;;0.40;0.30;;;;;;;18.55;51.01;102397.13;5033094;28;20489;-67
2021/11/09 12:43:10;;;;;;;0.40;0.20;;;;;;;19.20;49.29;102398.53;5033027;28;20466;-67
2021/11/09 12:45:40;;;;;;;0.40;0.20;;;;;;;19.34;50.13;102393.75;5032523;28;20499;-67
2021/11/09 12:48:08;;;;;;;0.40;0.20;;;;;;;19.63;49.95;102401.53;5033005;28;20490;-66
2021/11/09 12:50:36;;;;;;;0.40;0.30;;;;;;;19.41;49.42;102396.06;5034809;28;21023;-67
2021/11/09 12:53:05;;;;;;;0.40;0.30;;;;;;;19.59;49.76;102388.69;5036926;28;20446;-67
2021/11/09 12:55:32;;;;;;;0.40;0.30;;;;;;;19.30;50.26;102391.97;5036755;28;20883;-67
2021/11/09 12:58:13;;;;;;;0.40;0.30;;;;;;;19.56;50.03;102389.31;5036812;28;20487;-67
2021/11/09 13:00:45;;;;;;;0.40;0.30;;;;;;;19.41;47.97;102385.88;5036795;28;20434;-67
2021/11/09 13:03:23;;;;;;;0.40;0.20;;;;;;;18.92;48.20;102386.13;5036826;28;20489;-67
2021/11/09 13:05:53;;;;;;;0.40;0.30;;;;;;;17.87;51.12;102376.94;5036825;28;20483;-67
2021/11/09 13:08:27;;;;;;;0.40;0.30;;;;;;;17.24;52.25;102376.81;5036655;28;20457;-69